Time;durP1;ratioP1;P1;durP2;ratioP2;P2;SDS_P1;SDS_P2;PMS_P1;PMS_P2;Temp;Humidity;BMP_temperature;BMP_pressure;BME280_temperature;BME280_humidity;BME280_pressure;Samples;Min_cycle;Max_cycle;Signal;HPM_P1;HPM_P2
2023/11/11 00:01:45;;;;;;;3.10;2.90;;;4.50;99.90;;;;;;4958433;28;20237;-81
2023/11/11 00:04:13;;;;;;;6.20;4.43;;;4.40;99.90;;;;;;4958102;28;20289;-81
2023/11/11 00:06:40;;;;;;;4.35;3.38;;;4.30;99.90;;;;;;4958395;28;20208;-80
2023/11/11 00:09:10;;;;;;;6.68;6.18;;;4.20;99.90;;;;;;4960206;28;20208;-81
2023/11/11 00:11:37;;;;;;;7.93;2.67;;;4.20;99.90;;;;;;4961920;28;20215;-83
2023/11/11 00:14:04;;;;;;;2.78;2.58;;;4.30;99.90;;;;;;4962242;28;20523;-81
2023/11/11 00:16:31;;;;;;;1.70;1.60;;;4.40;99.90;;;;;;4962376;28;20279;-81
2023/11/11 00:18:59;;;;;;;3.33;3.15;;;4.50;99.90;;;;;;4962468;28;20203;-81
2023/11/11 00:21:26;;;;;;;6.32;3.45;;;4.60;99.90;;;;;;4962021;28;20271;-81
2023/11/11 00:23:56;;;;;;;2.55;2.45;;;4.50;99.90;;;;;;4961022;28;20578;-81
2023/11/11 00:26:23;;;;;;;1.42;1.42;;;4.10;99.90;;;;;;4962266;28;20394;-82
2023/11/11 00:28:50;;;;;;;2.83;2.65;;;4.20;99.90;;;;;;4962148;28;20239;-84
2023/11/11 00:31:17;;;;;;;4.65;4.35;;;4.20;99.90;;;;;;4962138;28;20286;-83
2023/11/11 00:33:44;;;;;;;11.38;4.38;;;4.20;99.90;;;;;;4962024;28;20208;-81
2023/11/11 00:36:12;;;;;;;4.30;4.00;;;4.20;99.90;;;;;;4962502;28;20207;-82
2023/11/11 00:38:39;;;;;;;2.92;2.72;;;4.10;99.90;;;;;;4961981;28;20215;-81
2023/11/11 00:41:06;;;;;;;2.88;2.58;;;4.00;99.90;;;;;;4962247;28;20214;-81
2023/11/11 00:43:33;;;;;;;4.28;3.97;;;4.00;99.90;;;;;;4961415;28;20222;-81
2023/11/11 00:46:00;;;;;;;6.30;3.95;;;3.90;99.90;;;;;;4962299;28;20266;-81
2023/11/11 00:48:27;;;;;;;3.15;2.83;;;4.00;99.90;;;;;;4961322;28;20662;-81
2023/11/11 00:50:54;;;;;;;5.20;4.80;;;4.00;99.90;;;;;;4961993;28;20204;-80
2023/11/11 00:53:21;;;;;;;2.30;2.20;;;3.90;99.90;;;;;;4961533;28;20278;-82
2023/11/11 00:55:48;;;;;;;1.60;1.50;;;3.90;99.90;;;;;;4954214;28;20491;-82
2023/11/11 00:58:16;;;;;;;3.83;3.63;;;4.00;99.90;;;;;;4966594;28;20208;-84
2023/11/11 01:00:43;;;;;;;4.85;4.47;;;4.20;99.90;;;;;;4956427;28;20274;-82
2023/11/11 01:03:11;;;;;;;3.95;3.65;;;3.80;99.90;;;;;;4962782;28;20262;-81
2023/11/11 01:05:40;;;;;;;6.90;5.85;;;3.80;99.90;;;;;;4962084;28;20302;-83
2023/11/11 01:08:09;;;;;;;2.95;2.85;;;3.80;99.90;;;;;;4963165;28;20210;-81
2023/11/11 01:10:37;;;;;;;5.22;4.82;;;3.80;99.90;;;;;;4962667;28;20286;-82
2023/11/11 01:13:06;;;;;;;5.65;5.22;;;3.90;99.90;;;;;;4961956;28;20681;-83
2023/11/11 01:15:33;;;;;;;2.97;2.78;;;3.90;99.90;;;;;;4961914;28;20262;-83
2023/11/11 01:18:00;;;;;;;4.00;3.65;;;3.90;99.90;;;;;;4961605;28;20207;-83
2023/11/11 01:20:27;;;;;;;7.78;6.13;;;3.80;99.90;;;;;;4960426;28;20208;-82
2023/11/11 01:22:54;;;;;;;4.07;3.78;;;4.00;99.90;;;;;;4960991;28;20208;-82
2023/11/11 01:25:21;;;;;;;4.88;4.68;;;3.80;99.90;;;;;;4960961;28;20258;-81
2023/11/11 01:27:48;;;;;;;4.57;4.18;;;3.80;99.90;;;;;;4964571;28;20199;-81
2023/11/11 01:30:16;;;;;;;3.85;3.65;;;3.70;99.90;;;;;;4965986;28;20246;-83
2023/11/11 01:32:45;;;;;;;5.47;5.00;;;3.80;99.90;;;;;;4961886;28;20214;-81
2023/11/11 01:35:12;;;;;;;4.15;3.95;;;3.70;99.90;;;;;;4960079;28;20477;-81
2023/11/11 01:37:39;;;;;;;3.33;3.13;;;3.80;99.90;;;;;;4961117;28;20760;-81
2023/11/11 01:40:06;;;;;;;5.32;4.05;;;3.80;99.90;;;;;;4960487;28;20208;-81
2023/11/11 01:42:34;;;;;;;4.18;3.88;;;3.70;99.90;;;;;;4961155;28;20804;-83
2023/11/11 01:45:01;;;;;;;5.15;4.75;;;3.70;99.90;;;;;;4961353;28;20242;-82
2023/11/11 01:47:28;;;;;;;2.92;2.83;;;3.60;99.90;;;;;;4960689;28;20282;-83
2023/11/11 01:49:56;;;;;;;4.95;4.65;;;3.50;99.90;;;;;;4961176;28;20207;-82
2023/11/11 01:52:23;;;;;;;7.65;6.82;;;3.40;99.90;;;;;;4961470;28;20235;-83
2023/11/11 01:54:51;;;;;;;4.85;4.55;;;3.30;99.90;;;;;;4961934;28;20241;-83
2023/11/11 01:57:18;;;;;;;4.15;3.80;;;3.30;99.90;;;;;;4962812;28;20203;-81
2023/11/11 01:59:46;;;;;;;5.50;5.00;;;3.20;99.90;;;;;;4962646;28;20749;-82
2023/11/11 02:02:15;;;;;;;5.88;3.88;;;3.20;99.90;;;;;;4961504;28;20310;-82
2023/11/11 02:04:42;;;;;;;6.07;5.57;;;3.30;99.90;;;;;;4970150;28;20303;-83
2023/11/11 02:07:09;;;;;;;5.30;4.80;;;3.20;99.90;;;;;;4978785;28;20195;-83
2023/11/11 02:09:36;;;;;;;3.00;2.80;;;3.10;99.90;;;;;;4980964;28;20907;-81
2023/11/11 02:12:04;;;;;;;2.67;2.55;;;3.00;99.90;;;;;;4981112;28;20217;-81
2023/11/11 02:14:35;;;;;;;3.33;3.13;;;3.10;99.90;;;;;;4980911;28;20247;-81
2023/11/11 02:17:02;;;;;;;3.30;3.00;;;3.10;99.90;;;;;;4986760;28;20191;-81
2023/11/11 02:19:30;;;;;;;7.22;6.28;;;3.00;99.90;;;;;;4987625;28;20241;-81
2023/11/11 02:21:56;;;;;;;6.72;4.28;;;3.10;99.90;;;;;;4975428;28;20195;-82
2023/11/11 02:24:25;;;;;;;3.58;2.85;;;3.30;99.90;;;;;;4960411;28;20326;-83
2023/11/11 02:26:52;;;;;;;7.43;6.80;;;3.20;99.90;;;;;;4961109;28;20212;-81
2023/11/11 02:29:19;;;;;;;4.90;4.50;;;3.00;99.90;;;;;;4956410;28;20275;-80
2023/11/11 02:31:46;;;;;;;5.40;4.90;;;3.00;99.90;;;;;;4959708;28;20249;-81
2023/11/11 02:34:13;;;;;;;3.33;1.98;;;3.00;99.90;;;;;;4959699;28;20235;-83
2023/11/11 02:36:40;;;;;;;3.05;2.90;;;2.90;99.90;;;;;;4959055;28;20212;-80
2023/11/11 02:39:24;;;;;;;6.40;3.92;;;3.00;99.90;;;;;;4958820;28;20207;-80
2023/11/11 02:41:50;;;;;;;5.53;5.13;;;3.10;99.90;;;;;;4958166;28;20552;-81
2023/11/11 02:44:18;;;;;;;5.03;4.63;;;3.00;99.90;;;;;;4957852;28;20208;-80
2023/11/11 02:46:45;;;;;;;6.90;6.43;;;3.10;99.90;;;;;;4958542;28;20211;-80
2023/11/11 02:49:13;;;;;;;6.65;6.10;;;3.20;99.90;;;;;;4959337;28;20207;-82
2023/11/11 02:51:40;;;;;;;3.70;3.40;;;3.30;99.90;;;;;;4959128;28;20327;-82
2023/11/11 02:54:07;;;;;;;5.45;4.97;;;3.10;99.90;;;;;;4960608;28;20278;-83
2023/11/11 02:56:34;;;;;;;4.90;4.60;;;3.20;99.90;;;;;;4959542;28;20658;-80
2023/11/11 02:59:01;;;;;;;4.53;3.72;;;3.00;99.90;;;;;;4960718;28;20204;-81
2023/11/11 03:01:35;;;;;;;7.13;6.50;;;2.90;99.90;;;;;;4969196;28;20294;-81
2023/11/11 03:04:03;;;;;;;4.78;4.38;;;2.90;99.90;;;;;;4962031;28;20232;-81
2023/11/11 03:06:32;;;;;;;14.55;5.03;;;3.00;99.90;;;;;;4961481;28;20663;-81
2023/11/11 03:09:00;;;;;;;5.20;4.90;;;3.30;99.90;;;;;;4963642;28;20242;-81
2023/11/11 03:11:27;;;;;;;3.85;3.58;;;3.20;99.90;;;;;;4964707;28;20278;-81
2023/11/11 03:13:54;;;;;;;2.63;2.53;;;3.10;99.90;;;;;;4962453;28;20215;-82
2023/11/11 03:16:21;;;;;;;8.23;7.53;;;2.80;99.90;;;;;;4962849;28;20245;-82
2023/11/11 03:18:48;;;;;;;4.93;4.10;;;2.80;99.90;;;;;;4962886;28;20207;-81
2023/11/11 03:21:23;;;;;;;4.35;4.05;;;2.90;99.90;;;;;;4962446;28;20279;-82
2023/11/11 03:23:50;;;;;;;5.88;5.03;;;2.90;99.90;;;;;;4959200;28;20606;-83
2023/11/11 03:26:17;;;;;;;3.17;2.90;;;2.60;99.90;;;;;;4968115;28;20291;-83
2023/11/11 03:28:44;;;;;;;7.15;6.50;;;2.50;99.90;;;;;;4961102;28;20243;-82
2023/11/11 03:31:13;;;;;;;4.38;4.15;;;2.50;99.90;;;;;;4961042;28;20259;-83
2023/11/11 03:33:41;;;;;;;2.78;2.58;;;2.40;99.90;;;;;;4960482;28;20314;-82
2023/11/11 03:36:08;;;;;;;6.07;5.57;;;2.50;99.90;;;;;;4956325;28;20207;-84
2023/11/11 03:38:35;;;;;;;3.63;3.42;;;2.70;99.90;;;;;;4968887;28;20266;-84
2023/11/11 03:41:02;;;;;;;7.82;6.35;;;2.60;99.90;;;;;;4972493;28;20302;-85
2023/11/11 03:43:30;;;;;;;5.63;5.15;;;2.50;99.90;;;;;;4963389;28;20279;-86
2023/11/11 03:45:59;;;;;;;5.40;5.05;;;2.20;99.90;;;;;;4961745;28;20298;-82
2023/11/11 03:48:27;;;;;;;2.88;2.60;;;2.20;99.90;;;;;;4962170;28;20207;-83
2023/11/11 03:50:55;;;;;;;7.43;6.72;;;1.90;99.90;;;;;;4968014;28;20245;-82
2023/11/11 03:53:22;;;;;;;7.93;7.47;;;1.90;99.90;;;;;;4967448;28;20211;-83
2023/11/11 03:55:50;;;;;;;6.13;5.00;;;2.00;99.90;;;;;;4962586;28;20408;-83
2023/11/11 03:58:17;;;;;;;6.10;5.60;;;2.10;99.90;;;;;;4960739;28;20278;-83
2023/11/11 04:00:44;;;;;;;13.32;5.88;;;2.20;99.90;;;;;;4959210;28;20254;-82
2023/11/11 04:03:12;;;;;;;5.28;4.80;;;2.20;99.90;;;;;;4960585;28;20207;-82
2023/11/11 04:05:39;;;;;;;4.75;4.30;;;2.20;99.90;;;;;;4959238;28;20626;-82
2023/11/11 04:08:06;;;;;;;11.52;6.32;;;2.00;99.90;;;;;;4958838;28;20512;-82
2023/11/11 04:10:33;;;;;;;3.17;2.97;;;2.10;99.90;;;;;;4960031;28;20203;-83
2023/11/11 04:13:00;;;;;;;13.45;8.40;;;2.10;99.90;;;;;;4960686;28;20364;-84
2023/11/11 04:15:28;;;;;;;6.25;5.82;;;2.10;99.90;;;;;;4960777;28;20223;-85
2023/11/11 04:17:55;;;;;;;5.18;4.68;;;2.40;99.90;;;;;;4960115;28;20207;-84
2023/11/11 04:20:22;;;;;;;5.88;5.57;;;2.40;99.90;;;;;;4961042;28;20501;-84
2023/11/11 04:22:49;;;;;;;6.88;4.93;;;2.40;99.90;;;;;;4960679;28;20461;-84
2023/11/11 04:25:16;;;;;;;9.20;8.23;;;2.40;99.90;;;;;;4960525;28;20227;-84
2023/11/11 04:27:44;;;;;;;7.82;6.43;;;2.20;99.90;;;;;;4963800;28;20307;-85
2023/11/11 04:30:11;;;;;;;4.68;4.28;;;2.00;99.90;;;;;;4967171;28;20210;-86
2023/11/11 04:32:40;;;;;;;5.40;3.95;;;1.90;99.90;;;;;;4969796;28;20224;-85
2023/11/11 04:35:07;;;;;;;5.97;5.57;;;1.90;99.90;;;;;;4961255;28;20526;-84
2023/11/11 04:37:35;;;;;;;14.73;5.35;;;1.90;99.90;;;;;;4960745;28;20576;-83
2023/11/11 04:40:07;;;;;;;9.10;7.38;;;1.90;99.90;;;;;;4961011;28;20460;-85
2023/11/11 04:42:35;;;;;;;22.42;7.63;;;1.90;99.90;;;;;;4960394;28;20203;-83
2023/11/11 04:45:03;;;;;;;18.05;4.10;;;2.00;99.90;;;;;;4960637;28;20338;-85
2023/11/11 04:47:30;;;;;;;3.45;3.25;;;2.10;99.90;;;;;;4960489;28;20283;-84
2023/11/11 04:49:57;;;;;;;11.43;6.35;;;2.00;99.90;;;;;;4960494;28;20251;-83
2023/11/11 04:52:25;;;;;;;3.65;3.40;;;2.10;99.90;;;;;;4967703;28;20207;-83
2023/11/11 04:54:52;;;;;;;3.50;3.30;;;2.00;99.90;;;;;;4960267;28;20246;-85
2023/11/11 04:57:19;;;;;;;5.75;5.28;;;2.10;99.90;;;;;;4964444;28;20308;-84
2023/11/11 04:59:46;;;;;;;5.55;5.05;;;2.00;99.90;;;;;;4962897;28;20495;-85
2023/11/11 05:02:13;;;;;;;9.38;8.48;;;2.30;99.90;;;;;;4963582;28;20214;-83
2023/11/11 05:04:41;;;;;;;3.92;3.60;;;2.10;99.90;;;;;;4962640;28;20283;-83
2023/11/11 05:07:09;;;;;;;6.07;5.65;;;2.10;99.90;;;;;;4962330;28;20512;-84
2023/11/11 05:09:37;;;;;;;3.88;3.58;;;2.20;99.90;;;;;;4963840;28;20204;-85
2023/11/11 05:12:06;;;;;;;7.93;7.32;;;2.20;99.90;;;;;;4964990;28;20251;-84
2023/11/11 05:14:32;;;;;;;4.55;3.67;;;2.20;99.90;;;;;;4964955;28;20208;-83
2023/11/11 05:17:06;;;;;;;10.82;7.55;;;2.10;99.90;;;;;;4967180;28;20270;-84
2023/11/11 05:19:34;;;;;;;4.82;4.57;;;1.90;99.90;;;;;;4981372;28;20192;-84
2023/11/11 05:22:02;;;;;;;5.80;5.40;;;1.70;99.90;;;;;;4980786;28;20259;-82
2023/11/11 05:24:30;;;;;;;5.70;5.35;;;2.00;99.90;;;;;;4971362;28;20250;-82
2023/11/11 05:26:57;;;;;;;10.57;9.10;;;2.30;99.90;;;;;;4963462;28;20307;-83
2023/11/11 05:29:24;;;;;;;6.68;2.92;;;2.20;99.90;;;;;;4962060;28;20279;-83
2023/11/11 05:31:51;;;;;;;4.32;3.97;;;2.20;99.90;;;;;;4963368;28;20274;-83
2023/11/11 05:34:18;;;;;;;5.43;4.82;;;2.20;99.90;;;;;;4963369;28;20262;-82
2023/11/11 05:36:44;;;;;;;3.78;3.58;;;2.20;99.90;;;;;;4962781;28;20208;-83
2023/11/11 05:39:14;;;;;;;6.00;5.50;;;2.10;99.90;;;;;;4962931;28;20275;-85
2023/11/11 05:41:41;;;;;;;4.60;4.30;;;2.20;99.90;;;;;;4963236;28;20497;-85
2023/11/11 05:44:10;;;;;;;6.28;5.78;;;1.90;99.90;;;;;;4963350;28;20206;-85
2023/11/11 05:46:37;;;;;;;7.93;5.80;;;1.80;99.90;;;;;;4962386;28;20231;-84
2023/11/11 05:49:04;;;;;;;5.78;5.38;;;1.80;99.90;;;;;;4962734;28;20215;-82
2023/11/11 05:51:32;;;;;;;17.70;7.88;;;1.90;99.90;;;;;;4962711;28;20396;-83
2023/11/11 05:53:59;;;;;;;3.28;3.03;;;1.80;99.90;;;;;;4961588;28;20215;-81
2023/11/11 05:56:26;;;;;;;10.30;7.95;;;1.90;99.90;;;;;;4961480;28;20212;-82
2023/11/11 05:58:53;;;;;;;5.72;5.32;;;1.90;99.90;;;;;;4961057;28;20246;-80
2023/11/11 06:01:20;;;;;;;5.15;4.80;;;1.90;99.90;;;;;;4960813;28;20208;-81
2023/11/11 06:03:47;;;;;;;4.57;4.30;;;2.00;99.90;;;;;;4960173;28;20236;-79
2023/11/11 06:06:15;;;;;;;5.40;5.00;;;2.00;99.90;;;;;;4960511;28;20235;-82
2023/11/11 06:08:42;;;;;;;10.30;4.07;;;2.00;99.90;;;;;;4960978;28;20282;-81
2023/11/11 06:11:10;;;;;;;3.88;3.65;;;2.20;99.90;;;;;;4960471;28;20245;-81
2023/11/11 06:13:37;;;;;;;4.15;3.95;;;2.30;99.90;;;;;;4960166;28;20830;-81
2023/11/11 06:16:05;;;;;;;4.90;4.35;;;2.40;99.90;;;;;;4960877;28;20283;-82
2023/11/11 06:18:32;;;;;;;6.95;4.72;;;2.40;99.90;;;;;;4960878;28;20400;-82
2023/11/11 06:20:59;;;;;;;2.97;2.42;;;2.60;99.90;;;;;;4978605;28;20554;-82
2023/11/11 06:23:27;;;;;;;3.42;3.22;;;2.40;99.90;;;;;;4966396;28;20208;-82
2023/11/11 06:25:58;;;;;;;14.63;7.93;;;2.40;99.90;;;;;;4955865;28;20239;-85
2023/11/11 06:28:26;;;;;;;3.80;3.53;;;2.40;99.90;;;;;;4968843;28;20231;-85
2023/11/11 06:30:52;;;;;;;4.95;4.55;;;2.40;99.90;;;;;;4971125;28;20453;-84
2023/11/11 06:33:20;;;;;;;7.97;4.75;;;2.30;99.90;;;;;;4982360;28;20204;-85
2023/11/11 06:35:48;;;;;;;6.38;5.88;;;2.20;99.90;;;;;;4981831;28;20200;-82
2023/11/11 06:38:15;;;;;;;2.83;2.63;;;2.20;99.90;;;;;;4984137;28;20441;-82
2023/11/11 06:40:43;;;;;;;4.43;4.03;;;2.40;99.90;;;;;;4973930;28;20238;-83
2023/11/11 06:43:10;;;;;;;4.63;4.38;;;2.40;99.90;;;;;;4980160;28;20199;-82
2023/11/11 06:45:39;;;;;;;3.03;2.92;;;2.70;99.90;;;;;;4983948;28;20219;-82
2023/11/11 06:48:07;;;;;;;4.82;4.53;;;2.60;99.90;;;;;;4977189;28;20180;-83
2023/11/11 06:50:34;;;;;;;12.18;6.47;;;2.50;99.90;;;;;;4977512;28;20195;-85
2023/11/11 06:53:01;;;;;;;9.43;8.32;;;2.50;99.90;;;;;;4979774;28;20684;-84
2023/11/11 06:55:30;;;;;;;7.57;6.97;;;2.60;99.90;;;;;;4962867;28;20215;-84
2023/11/11 06:57:57;;;;;;;1.83;1.73;;;2.50;99.90;;;;;;4959937;28;20215;-84
2023/11/11 07:00:25;;;;;;;6.30;5.63;;;2.50;99.90;;;;;;4965639;28;20218;-82
2023/11/11 07:02:55;;;;;;;6.80;6.40;;;2.60;99.90;;;;;;4960521;28;20238;-83
2023/11/11 07:05:22;;;;;;;5.68;5.03;;;2.80;99.90;;;;;;4960781;28;20563;-83
2023/11/11 07:07:49;;;;;;;3.10;2.90;;;2.80;99.90;;;;;;4959894;28;20218;-81
2023/11/11 07:10:16;;;;;;;6.60;6.15;;;2.60;99.90;;;;;;4960518;28;20563;-82
2023/11/11 07:12:46;;;;;;;3.85;3.55;;;2.80;99.90;;;;;;4960045;28;20271;-78
2023/11/11 07:15:15;;;;;;;5.40;5.05;;;2.90;99.90;;;;;;4960174;28;20203;-80
2023/11/11 07:17:44;;;;;;;3.10;3.00;;;2.90;99.90;;;;;;4959642;28;20302;-82
2023/11/11 07:20:12;;;;;;;3.60;3.35;;;2.80;99.90;;;;;;4968247;28;20208;-81
2023/11/11 07:22:39;;;;;;;5.82;5.53;;;3.00;99.90;;;;;;4962023;28;20221;-79
2023/11/11 07:25:09;;;;;;;4.88;4.57;;;3.10;99.90;;;;;;4963192;28;20215;-81
2023/11/11 07:27:36;;;;;;;4.90;4.63;;;3.20;99.90;;;;;;4970173;28;20239;-80
2023/11/11 07:30:06;;;;;;;2.72;2.53;;;3.20;99.90;;;;;;4964176;28;20727;-85
2023/11/11 07:32:34;;;;;;;4.93;4.53;;;3.30;99.90;;;;;;4960736;28;20347;-81
2023/11/11 07:35:02;;;;;;;5.00;4.70;;;3.50;99.90;;;;;;4962809;28;20504;-81
2023/11/11 07:37:30;;;;;;;6.28;5.68;;;3.70;99.90;;;;;;4973104;28;20222;-81
2023/11/11 07:39:59;;;;;;;3.88;3.67;;;3.70;99.90;;;;;;4965199;28;20318;-81
2023/11/11 07:42:28;;;;;;;8.02;7.20;;;3.80;99.90;;;;;;4960908;28;20239;-81
2023/11/11 07:44:55;;;;;;;3.95;3.65;;;4.00;99.90;;;;;;4956190;28;20424;-80
2023/11/11 07:47:22;;;;;;;3.45;3.25;;;3.90;99.90;;;;;;4959342;28;20286;-82
2023/11/11 07:49:49;;;;;;;5.25;4.25;;;4.10;99.90;;;;;;4959531;28;20207;-82
2023/11/11 07:52:16;;;;;;;6.07;5.55;;;4.10;99.90;;;;;;4952641;29;20217;-84
2023/11/11 07:54:44;;;;;;;4.40;4.20;;;4.00;99.90;;;;;;4957780;28;20532;-80
2023/11/11 07:57:13;;;;;;;1.58;1.50;;;3.90;99.90;;;;;;4956549;28;20218;-81
2023/11/11 07:59:43;;;;;;;5.47;5.07;;;4.00;99.90;;;;;;4960568;28;20238;-81
2023/11/11 08:02:14;;;;;;;8.68;7.10;;;4.10;99.90;;;;;;4959119;28;20220;-81
2023/11/11 08:04:42;;;;;;;3.53;3.22;;;4.00;99.90;;;;;;4953206;28;20451;-81
2023/11/11 08:07:11;;;;;;;3.13;3.03;;;4.20;99.90;;;;;;4955273;28;20453;-81
2023/11/11 08:09:38;;;;;;;2.15;2.05;;;4.20;99.90;;;;;;4955658;28;20235;-82
2023/11/11 08:12:06;;;;;;;3.80;3.55;;;4.40;99.90;;;;;;4958998;28;20512;-81
2023/11/11 08:14:33;;;;;;;4.47;3.28;;;4.40;99.90;;;;;;4958681;28;20215;-80
2023/11/11 08:17:00;;;;;;;4.53;4.10;;;4.40;99.90;;;;;;4959742;28;20268;-79
2023/11/11 08:19:27;;;;;;;2.97;2.78;;;4.50;99.90;;;;;;4962127;28;20448;-84
2023/11/11 08:21:57;;;;;;;4.00;3.75;;;4.50;99.90;;;;;;4977464;28;20195;-81
2023/11/11 08:24:24;;;;;;;4.88;4.03;;;4.60;99.90;;;;;;4974498;28;20196;-82
2023/11/11 08:26:50;;;;;;;2.60;1.98;;;4.50;99.90;;;;;;4964374;28;20456;-85
2023/11/11 08:29:21;;;;;;;3.22;2.35;;;4.60;99.90;;;;;;4962913;28;20214;-85
2023/11/11 08:31:48;;;;;;;1.50;1.48;;;4.70;99.90;;;;;;4963287;28;20287;-85
2023/11/11 08:34:16;;;;;;;3.03;2.92;;;4.80;99.90;;;;;;4959803;28;20218;-84
2023/11/11 08:36:43;;;;;;;4.13;3.80;;;4.90;99.90;;;;;;4963949;28;20246;-84
2023/11/11 08:39:20;;;;;;;4.15;3.85;;;4.90;99.90;;;;;;4963605;28;20217;-81
2023/11/11 08:41:48;;;;;;;1.77;1.67;;;5.10;99.90;;;;;;4965021;28;20242;-81
2023/11/11 08:44:14;;;;;;;2.25;2.13;;;5.00;99.90;;;;;;4964553;28;20406;-81
2023/11/11 08:46:42;;;;;;;11.20;6.38;;;5.00;99.90;;;;;;4963191;28;20231;-83
2023/11/11 08:49:13;;;;;;;2.63;2.45;;;5.00;99.90;;;;;;4964437;28;20200;-83
2023/11/11 08:51:41;;;;;;;2.72;2.60;;;5.00;99.90;;;;;;4966076;28;20314;-83
2023/11/11 08:54:07;;;;;;;3.92;3.72;;;5.10;99.90;;;;;;4975711;28;20219;-82
2023/11/11 08:56:34;;;;;;;4.72;4.30;;;5.20;99.90;;;;;;4964418;28;20207;-81
2023/11/11 08:59:01;;;;;;;8.32;6.05;;;5.30;99.90;;;;;;4969854;28;20495;-78
2023/11/11 09:01:28;;;;;;;3.05;2.95;;;5.40;99.90;;;;;;4967847;28;20305;-80
2023/11/11 09:03:56;;;;;;;2.58;2.47;;;5.60;99.90;;;;;;4962316;28;20590;-83
2023/11/11 09:06:23;;;;;;;5.40;4.97;;;5.80;99.90;;;;;;4961677;28;20278;-79
2023/11/11 09:08:49;;;;;;;2.35;2.25;;;5.80;99.90;;;;;;4960164;28;20227;-80
2023/11/11 09:11:17;;;;;;;1.13;1.02;;;5.80;99.90;;;;;;4957851;28;20207;-80
2023/11/11 09:13:44;;;;;;;4.72;4.43;;;5.90;99.90;;;;;;4960346;28;20302;-79
2023/11/11 09:16:11;;;;;;;2.60;2.50;;;6.00;99.90;;;;;;4961095;28;20727;-78
2023/11/11 09:18:38;;;;;;;2.78;2.60;;;5.90;99.90;;;;;;4956717;28;20254;-78
2023/11/11 09:21:07;;;;;;;4.25;3.85;;;5.90;99.90;;;;;;4960465;28;20512;-77
2023/11/11 09:23:36;;;;;;;12.80;3.97;;;6.10;99.90;;;;;;4960602;28;20207;-79
2023/11/11 09:26:05;;;;;;;1.90;1.80;;;6.20;99.90;;;;;;4961206;28;20610;-79
2023/11/11 09:28:32;;;;;;;1.95;1.85;;;6.20;99.90;;;;;;4962711;29;20204;-81
2023/11/11 09:30:59;;;;;;;1.83;1.83;;;6.10;99.90;;;;;;4961244;28;20452;-79
2023/11/11 09:33:28;;;;;;;4.40;4.03;;;6.20;99.90;;;;;;4962170;28;20208;-81
2023/11/11 09:35:55;;;;;;;2.03;1.92;;;6.20;99.90;;;;;;4961590;28;20600;-81
2023/11/11 09:38:23;;;;;;;2.40;2.30;;;6.40;99.90;;;;;;4956539;28;20259;-81
2023/11/11 09:40:50;;;;;;;1.25;1.25;;;6.40;99.90;;;;;;4959058;28;20208;-80
2023/11/11 09:43:18;;;;;;;5.97;5.50;;;6.60;99.90;;;;;;4959861;28;20275;-80
2023/11/11 09:45:50;;;;;;;2.35;2.25;;;6.60;99.90;;;;;;4961111;28;20278;-80
2023/11/11 09:48:17;;;;;;;2.35;2.25;;;6.80;99.90;;;;;;4960380;28;20329;-82
2023/11/11 09:50:47;;;;;;;0.85;0.85;;;6.90;99.90;;;;;;4953727;28;20207;-81
2023/11/11 09:53:14;;;;;;;2.70;2.60;;;7.10;99.90;;;;;;4963200;28;20199;-79
2023/11/11 09:55:42;;;;;;;5.00;4.75;;;7.00;99.90;;;;;;4958568;28;20210;-82
2023/11/11 09:58:12;;;;;;;2.78;2.67;;;7.00;99.90;;;;;;4961660;28;20226;-81
2023/11/11 10:00:40;;;;;;;0.70;0.70;;;7.00;99.90;;;;;;4970124;28;20565;-80
2023/11/11 10:03:09;;;;;;;3.88;3.67;;;7.10;99.90;;;;;;4974959;28;20199;-84
2023/11/11 10:05:36;;;;;;;2.03;1.80;;;7.20;99.90;;;;;;4972787;28;20218;-84
2023/11/11 10:08:03;;;;;;;2.08;1.98;;;7.30;99.90;;;;;;4959221;28;20241;-83
2023/11/11 10:10:31;;;;;;;1.73;1.73;;;7.20;99.90;;;;;;4960689;28;20243;-82
2023/11/11 10:12:59;;;;;;;4.97;4.57;;;7.10;99.90;;;;;;4960269;28;20239;-81
2023/11/11 10:15:26;;;;;;;2.85;2.75;;;7.20;99.90;;;;;;4960544;28;20472;-84
2023/11/11 10:17:53;;;;;;;2.40;2.30;;;7.40;99.90;;;;;;4959204;28;20354;-82
2023/11/11 10:20:21;;;;;;;1.35;1.35;;;7.40;99.90;;;;;;4962266;28;20287;-84
2023/11/11 10:22:50;;;;;;;3.10;2.92;;;7.50;99.90;;;;;;4961508;28;20212;-85
2023/11/11 10:25:18;;;;;;;2.55;2.35;;;7.80;99.90;;;;;;4964011;28;20207;-84
2023/11/11 10:27:50;;;;;;;3.60;3.40;;;7.60;99.90;;;;;;4959191;28;20222;-83
2023/11/11 10:30:26;;;;;;;1.67;1.58;;;7.60;99.90;;;;;;4957868;28;20423;-83
2023/11/11 10:32:54;;;;;;;3.88;3.67;;;7.80;99.90;;;;;;4965539;28;20238;-83
2023/11/11 10:35:24;;;;;;;2.10;2.00;;;8.20;99.90;;;;;;4956322;28;20232;-83
2023/11/11 10:37:51;;;;;;;4.15;3.80;;;8.00;99.90;;;;;;4960073;28;20219;-83
2023/11/11 10:40:19;;;;;;;3.13;2.78;;;8.00;99.90;;;;;;4963042;28;20424;-82
2023/11/11 10:42:47;;;;;;;1.70;1.60;;;8.00;99.90;;;;;;4959677;28;20555;-82
2023/11/11 10:45:15;;;;;;;2.38;2.28;;;8.10;99.90;;;;;;4959972;28;20219;-83
2023/11/11 10:47:43;;;;;;;4.25;4.05;;;8.00;99.90;;;;;;4958596;28;20451;-83
2023/11/11 10:50:11;;;;;;;2.30;2.20;;;8.20;99.90;;;;;;4959490;28;20452;-83
2023/11/11 10:52:43;;;;;;;3.75;3.45;;;8.30;99.90;;;;;;4959351;28;20242;-83
2023/11/11 10:55:11;;;;;;;2.25;1.90;;;8.50;99.90;;;;;;4968570;28;20215;-81
2023/11/11 10:57:41;;;;;;;2.53;2.42;;;8.40;99.90;;;;;;4964139;28;20223;-82
2023/11/11 11:00:20;;;;;;;5.18;3.03;;;8.60;99.90;;;;;;4962184;28;20199;-82
2023/11/11 11:02:51;;;;;;;2.88;2.78;;;8.30;99.90;;;;;;4959190;28;20211;-83
2023/11/11 11:05:27;;;;;;;2.05;1.92;;;8.40;99.90;;;;;;4953190;28;20584;-83
2023/11/11 11:08:06;;;;;;;2.17;2.08;;;8.30;99.90;;;;;;4959170;28;20766;-85
2023/11/11 11:10:45;;;;;;;2.55;2.45;;;8.20;99.90;;;;;;4959911;28;20550;-83
2023/11/11 11:13:15;;;;;;;0.90;0.90;;;8.50;99.90;;;;;;4959018;28;20207;-83
2023/11/11 11:15:44;;;;;;;0.80;0.80;;;8.50;99.90;;;;;;4961164;28;20239;-81
2023/11/11 11:18:11;;;;;;;1.90;1.83;;;8.50;99.90;;;;;;4977803;28;20214;-82
2023/11/11 11:20:41;;;;;;;1.10;1.10;;;8.40;99.90;;;;;;4989744;28;20226;-83
2023/11/11 11:23:11;;;;;;;0.90;0.90;;;8.40;99.90;;;;;;4986434;28;20203;-80
2023/11/11 11:25:44;;;;;;;1.65;1.55;;;8.50;99.90;;;;;;4974722;28;20192;-83
2023/11/11 11:28:14;;;;;;;2.08;1.98;;;8.40;99.90;;;;;;4964003;28;20255;-82
2023/11/11 11:31:03;;;;;;;2.65;2.45;;;8.40;99.90;;;;;;4969312;28;20217;-84
2023/11/11 11:33:32;;;;;;;3.13;2.92;;;8.40;99.90;;;;;;4963918;28;20210;-84
2023/11/11 11:36:19;;;;;;;0.90;0.90;;;8.50;99.90;;;;;;4964918;28;20259;-86
2023/11/11 11:38:54;;;;;;;0.80;0.80;;;8.40;99.90;;;;;;4975091;28;20215;-83
2023/11/11 11:41:28;;;;;;;0.90;0.90;;;8.60;99.90;;;;;;4970498;28;20270;-83
2023/11/11 11:44:02;;;;;;;1.38;1.38;;;8.70;99.90;;;;;;4982712;28;20238;-82
2023/11/11 11:46:45;;;;;;;1.95;1.85;;;8.70;99.90;;;;;;4982519;28;20205;-85
2023/11/11 11:49:19;;;;;;;1.20;1.17;;;8.80;99.90;;;;;;4969945;28;20584;-84
2023/11/11 11:51:51;;;;;;;0.60;0.60;;;8.70;99.90;;;;;;4963610;28;20476;-84
2023/11/11 11:54:19;;;;;;;1.00;1.00;;;8.60;99.90;;;;;;4963826;28;20271;-84
2023/11/11 11:56:50;;;;;;;3.15;2.95;;;8.60;99.90;;;;;;4960957;28;20219;-83
2023/11/11 11:59:18;;;;;;;2.80;2.67;;;8.50;99.90;;;;;;4961871;28;20203;-82
2023/11/11 12:01:48;;;;;;;0.75;0.75;;;8.70;99.90;;;;;;4955413;28;20245;-84
2023/11/11 12:04:20;;;;;;;1.08;1.02;;;8.70;99.90;;;;;;4964918;28;20208;-84
2023/11/11 12:06:52;;;;;;;1.42;1.42;;;8.70;99.90;;;;;;4964939;28;20273;-83
2023/11/11 12:09:22;;;;;;;1.55;1.45;;;8.80;99.90;;;;;;4963390;28;20262;-83
2023/11/11 12:11:49;;;;;;;5.03;1.30;;;8.90;99.90;;;;;;4963245;28;20468;-84
2023/11/11 12:14:17;;;;;;;1.65;1.60;;;8.60;99.90;;;;;;4963991;28;20496;-81
2023/11/11 12:16:47;;;;;;;1.70;1.60;;;8.70;99.90;;;;;;4964763;28;20207;-85
2023/11/11 12:19:38;;;;;;;1.42;1.42;;;8.70;99.90;;;;;;4963911;28;20223;-83
2023/11/11 12:22:06;;;;;;;0.80;0.80;;;8.70;99.90;;;;;;4964009;28;20235;-81
2023/11/11 12:24:34;;;;;;;1.35;1.25;;;8.70;99.90;;;;;;4962950;28;20215;-82
2023/11/11 12:27:02;;;;;;;1.02;1.02;;;8.70;99.90;;;;;;4963419;28;20488;-81
2023/11/11 12:29:37;;;;;;;0.50;0.50;;;8.90;99.90;;;;;;4964796;28;20218;-82
2023/11/11 12:32:04;;;;;;;5.05;4.65;;;8.90;99.90;;;;;;4963938;28;20250;-83
2023/11/11 12:34:31;;;;;;;1.38;1.38;;;8.90;99.90;;;;;;4963590;28;20211;-82
2023/11/11 12:36:59;;;;;;;2.97;2.85;;;8.90;99.90;;;;;;4962993;28;20623;-82
2023/11/11 12:39:29;;;;;;;3.63;3.33;;;8.80;99.90;;;;;;4968708;28;20245;-84
2023/11/11 12:41:58;;;;;;;2.83;2.63;;;8.80;99.90;;;;;;4965967;28;20211;-82
2023/11/11 12:44:31;;;;;;;1.70;1.60;;;8.80;99.90;;;;;;4962890;28;20207;-80
2023/11/11 12:46:58;;;;;;;0.98;0.98;;;8.70;99.90;;;;;;4962938;28;20295;-83
2023/11/11 12:49:27;;;;;;;1.88;1.77;;;8.90;99.90;;;;;;4963080;28;20713;-83
2023/11/11 12:51:58;;;;;;;2.65;2.55;;;8.70;99.90;;;;;;4963534;28;20204;-82
2023/11/11 12:54:33;;;;;;;4.10;3.70;;;8.70;99.90;;;;;;4962711;28;20207;-84
2023/11/11 12:57:02;;;;;;;1.80;1.77;;;8.60;99.90;;;;;;4961128;28;20223;-83
2023/11/11 12:59:29;;;;;;;3.45;3.13;;;8.60;99.90;;;;;;4963041;28;20554;-83
2023/11/11 13:02:03;;;;;;;2.15;1.77;;;8.70;99.90;;;;;;4963630;28;20639;-82